sensor_id;sensor_type;location;lat;lon;timestamp;P1;durP1;ratioP1;P2;durP2;ratioP2
2674;SDS011;1347;42.122;24.746;2023-03-23T00:01:46;33.30;;;24.50;;
2674;SDS011;1347;42.122;24.746;2023-03-23T00:04:14;32.83;;;26.97;;
2674;SDS011;1347;42.122;24.746;2023-03-23T00:06:43;31.67;;;26.30;;
2674;SDS011;1347;42.122;24.746;2023-03-23T00:09:10;32.90;;;25.47;;
2674;SDS011;1347;42.122;24.746;2023-03-23T00:11:40;33.53;;;26.33;;
2674;SDS011;1347;42.122;24.746;2023-03-23T00:14:08;33.13;;;25.87;;
2674;SDS011;1347;42.122;24.746;2023-03-23T00:16:38;32.17;;;26.27;;
2674;SDS011;1347;42.122;24.746;2023-03-23T00:19:06;33.33;;;26.77;;
2674;SDS011;1347;42.122;24.746;2023-03-23T00:21:35;33.20;;;26.07;;
2674;SDS011;1347;42.122;24.746;2023-03-23T00:24:06;35.60;;;25.23;;
2674;SDS011;1347;42.122;24.746;2023-03-23T00:26:35;32.67;;;25.77;;
2674;SDS011;1347;42.122;24.746;2023-03-23T00:29:06;34.07;;;24.97;;
2674;SDS011;1347;42.122;24.746;2023-03-23T00:31:38;35.03;;;26.03;;
2674;SDS011;1347;42.122;24.746;2023-03-23T00:34:05;40.27;;;27.17;;
2674;SDS011;1347;42.122;24.746;2023-03-23T00:36:33;35.00;;;25.63;;
2674;SDS011;1347;42.122;24.746;2023-03-23T00:39:09;32.40;;;24.50;;
2674;SDS011;1347;42.122;24.746;2023-03-23T00:41:36;33.13;;;26.00;;
2674;SDS011;1347;42.122;24.746;2023-03-23T00:44:03;30.23;;;24.40;;
2674;SDS011;1347;42.122;24.746;2023-03-23T00:46:33;39.50;;;26.17;;
2674;SDS011;1347;42.122;24.746;2023-03-23T00:49:10;34.60;;;26.33;;
2674;SDS011;1347;42.122;24.746;2023-03-23T00:51:38;41.47;;;26.53;;
2674;SDS011;1347;42.122;24.746;2023-03-23T00:54:05;33.17;;;25.40;;
2674;SDS011;1347;42.122;24.746;2023-03-23T00:56:34;30.97;;;25.17;;
2674;SDS011;1347;42.122;24.746;2023-03-23T00:59:01;35.30;;;27.13;;
2674;SDS011;1347;42.122;24.746;2023-03-23T01:01:28;35.03;;;29.10;;
2674;SDS011;1347;42.122;24.746;2023-03-23T01:03:55;31.30;;;25.27;;
2674;SDS011;1347;42.122;24.746;2023-03-23T01:06:26;34.87;;;25.80;;
2674;SDS011;1347;42.122;24.746;2023-03-23T01:08:53;36.23;;;28.53;;
2674;SDS011;1347;42.122;24.746;2023-03-23T01:11:21;33.47;;;27.73;;
2674;SDS011;1347;42.122;24.746;2023-03-23T01:13:50;34.07;;;26.30;;
2674;SDS011;1347;42.122;24.746;2023-03-23T01:16:17;40.33;;;29.20;;
2674;SDS011;1347;42.122;24.746;2023-03-23T01:18:44;38.63;;;28.90;;
2674;SDS011;1347;42.122;24.746;2023-03-23T01:21:12;34.67;;;27.27;;
2674;SDS011;1347;42.122;24.746;2023-03-23T01:23:41;35.00;;;27.40;;
2674;SDS011;1347;42.122;24.746;2023-03-23T01:26:09;34.20;;;26.90;;
2674;SDS011;1347;42.122;24.746;2023-03-23T01:28:37;36.00;;;26.60;;
2674;SDS011;1347;42.122;24.746;2023-03-23T01:31:07;34.60;;;27.43;;
2674;SDS011;1347;42.122;24.746;2023-03-23T01:33:37;38.60;;;28.47;;
2674;SDS011;1347;42.122;24.746;2023-03-23T01:36:05;34.53;;;26.50;;
2674;SDS011;1347;42.122;24.746;2023-03-23T01:38:33;31.33;;;25.50;;
2674;SDS011;1347;42.122;24.746;2023-03-23T01:41:01;38.73;;;27.60;;
2674;SDS011;1347;42.122;24.746;2023-03-23T01:43:28;34.57;;;27.00;;
2674;SDS011;1347;42.122;24.746;2023-03-23T01:45:56;36.77;;;27.10;;
2674;SDS011;1347;42.122;24.746;2023-03-23T01:48:25;35.33;;;27.37;;
2674;SDS011;1347;42.122;24.746;2023-03-23T01:50:55;34.47;;;27.00;;
2674;SDS011;1347;42.122;24.746;2023-03-23T01:53:26;32.47;;;25.40;;
2674;SDS011;1347;42.122;24.746;2023-03-23T01:55:57;37.77;;;25.53;;
2674;SDS011;1347;42.122;24.746;2023-03-23T01:58:27;37.53;;;26.70;;
2674;SDS011;1347;42.122;24.746;2023-03-23T02:00:57;36.00;;;28.37;;
2674;SDS011;1347;42.122;24.746;2023-03-23T02:03:28;36.33;;;26.10;;
2674;SDS011;1347;42.122;24.746;2023-03-23T02:05:57;37.23;;;27.70;;
2674;SDS011;1347;42.122;24.746;2023-03-23T02:08:24;30.60;;;25.57;;
2674;SDS011;1347;42.122;24.746;2023-03-23T02:10:54;33.87;;;26.17;;
2674;SDS011;1347;42.122;24.746;2023-03-23T02:13:21;31.67;;;25.10;;
2674;SDS011;1347;42.122;24.746;2023-03-23T02:15:50;35.83;;;26.83;;
2674;SDS011;1347;42.122;24.746;2023-03-23T02:18:33;34.90;;;26.13;;
2674;SDS011;1347;42.122;24.746;2023-03-23T02:21:14;30.23;;;24.50;;
2674;SDS011;1347;42.122;24.746;2023-03-23T02:27:01;36.07;;;26.67;;
2674;SDS011;1347;42.122;24.746;2023-03-23T02:29:51;33.73;;;26.10;;
2674;SDS011;1347;42.122;24.746;2023-03-23T02:32:36;36.20;;;27.27;;
2674;SDS011;1347;42.122;24.746;2023-03-23T02:35:16;36.80;;;27.50;;
2674;SDS011;1347;42.122;24.746;2023-03-23T02:37:47;35.43;;;28.40;;
2674;SDS011;1347;42.122;24.746;2023-03-23T02:40:18;39.27;;;28.80;;
2674;SDS011;1347;42.122;24.746;2023-03-23T02:42:50;32.50;;;28.33;;
2674;SDS011;1347;42.122;24.746;2023-03-23T02:45:20;38.57;;;28.70;;
2674;SDS011;1347;42.122;24.746;2023-03-23T02:47:52;40.17;;;29.30;;
2674;SDS011;1347;42.122;24.746;2023-03-23T02:50:23;37.00;;;29.20;;
2674;SDS011;1347;42.122;24.746;2023-03-23T02:52:53;42.20;;;28.67;;
2674;SDS011;1347;42.122;24.746;2023-03-23T02:55:23;41.30;;;30.43;;
2674;SDS011;1347;42.122;24.746;2023-03-23T02:57:53;39.80;;;28.80;;
2674;SDS011;1347;42.122;24.746;2023-03-23T03:00:21;41.97;;;29.30;;
2674;SDS011;1347;42.122;24.746;2023-03-23T03:02:48;44.20;;;30.60;;
2674;SDS011;1347;42.122;24.746;2023-03-23T03:05:21;39.23;;;29.50;;
2674;SDS011;1347;42.122;24.746;2023-03-23T03:07:59;50.13;;;30.67;;
2674;SDS011;1347;42.122;24.746;2023-03-23T03:10:34;41.67;;;29.00;;
2674;SDS011;1347;42.122;24.746;2023-03-23T03:13:10;37.07;;;27.33;;
2674;SDS011;1347;42.122;24.746;2023-03-23T03:15:43;38.50;;;28.17;;
2674;SDS011;1347;42.122;24.746;2023-03-23T03:18:15;34.80;;;27.60;;
2674;SDS011;1347;42.122;24.746;2023-03-23T03:20:48;42.03;;;27.43;;
2674;SDS011;1347;42.122;24.746;2023-03-23T03:23:19;39.70;;;29.43;;
2674;SDS011;1347;42.122;24.746;2023-03-23T03:25:49;40.47;;;27.77;;
2674;SDS011;1347;42.122;24.746;2023-03-23T03:28:18;35.87;;;28.00;;
2674;SDS011;1347;42.122;24.746;2023-03-23T03:30:47;33.87;;;26.43;;
2674;SDS011;1347;42.122;24.746;2023-03-23T03:33:19;36.93;;;27.73;;
2674;SDS011;1347;42.122;24.746;2023-03-23T03:35:52;34.57;;;27.50;;
2674;SDS011;1347;42.122;24.746;2023-03-23T03:38:21;37.30;;;28.57;;
2674;SDS011;1347;42.122;24.746;2023-03-23T03:40:48;37.97;;;28.53;;
2674;SDS011;1347;42.122;24.746;2023-03-23T03:43:15;32.60;;;26.13;;
2674;SDS011;1347;42.122;24.746;2023-03-23T03:45:42;36.33;;;27.00;;
2674;SDS011;1347;42.122;24.746;2023-03-23T03:48:09;35.80;;;26.87;;
2674;SDS011;1347;42.122;24.746;2023-03-23T03:50:36;32.43;;;27.10;;
2674;SDS011;1347;42.122;24.746;2023-03-23T03:53:04;35.50;;;28.00;;
2674;SDS011;1347;42.122;24.746;2023-03-23T03:55:32;35.60;;;27.97;;
2674;SDS011;1347;42.122;24.746;2023-03-23T03:58:00;34.33;;;27.27;;
2674;SDS011;1347;42.122;24.746;2023-03-23T04:00:29;34.63;;;25.90;;
2674;SDS011;1347;42.122;24.746;2023-03-23T04:02:56;36.67;;;27.30;;
2674;SDS011;1347;42.122;24.746;2023-03-23T04:05:25;38.23;;;26.40;;
2674;SDS011;1347;42.122;24.746;2023-03-23T04:07:53;36.10;;;27.80;;
2674;SDS011;1347;42.122;24.746;2023-03-23T04:10:28;37.07;;;26.90;;
2674;SDS011;1347;42.122;24.746;2023-03-23T04:12:55;39.17;;;28.37;;
2674;SDS011;1347;42.122;24.746;2023-03-23T04:15:23;37.33;;;29.00;;
2674;SDS011;1347;42.122;24.746;2023-03-23T04:17:50;39.03;;;27.27;;
2674;SDS011;1347;42.122;24.746;2023-03-23T04:20:17;36.93;;;28.00;;
2674;SDS011;1347;42.122;24.746;2023-03-23T04:22:44;36.13;;;27.23;;
2674;SDS011;1347;42.122;24.746;2023-03-23T04:25:15;37.70;;;27.17;;
2674;SDS011;1347;42.122;24.746;2023-03-23T04:27:47;36.20;;;26.57;;
2674;SDS011;1347;42.122;24.746;2023-03-23T04:30:18;38.27;;;26.87;;
2674;SDS011;1347;42.122;24.746;2023-03-23T04:32:47;38.60;;;27.43;;
2674;SDS011;1347;42.122;24.746;2023-03-23T04:35:17;35.83;;;28.20;;
2674;SDS011;1347;42.122;24.746;2023-03-23T04:37:45;38.10;;;27.60;;
2674;SDS011;1347;42.122;24.746;2023-03-23T04:40:13;36.50;;;27.10;;
2674;SDS011;1347;42.122;24.746;2023-03-23T04:42:41;36.13;;;28.03;;
2674;SDS011;1347;42.122;24.746;2023-03-23T04:45:12;39.60;;;28.77;;
2674;SDS011;1347;42.122;24.746;2023-03-23T04:47:41;37.20;;;24.93;;
2674;SDS011;1347;42.122;24.746;2023-03-23T04:50:18;39.47;;;26.73;;
2674;SDS011;1347;42.122;24.746;2023-03-23T04:52:46;39.43;;;28.87;;
2674;SDS011;1347;42.122;24.746;2023-03-23T04:55:13;35.50;;;25.90;;
2674;SDS011;1347;42.122;24.746;2023-03-23T04:57:40;35.40;;;26.97;;
2674;SDS011;1347;42.122;24.746;2023-03-23T05:00:08;39.30;;;28.23;;
2674;SDS011;1347;42.122;24.746;2023-03-23T05:02:40;40.40;;;29.77;;
2674;SDS011;1347;42.122;24.746;2023-03-23T05:05:08;42.03;;;30.93;;
2674;SDS011;1347;42.122;24.746;2023-03-23T05:07:37;49.03;;;32.73;;
2674;SDS011;1347;42.122;24.746;2023-03-23T05:10:04;40.53;;;31.83;;
2674;SDS011;1347;42.122;24.746;2023-03-23T05:12:33;35.63;;;27.40;;
2674;SDS011;1347;42.122;24.746;2023-03-23T05:14:59;37.30;;;28.70;;
2674;SDS011;1347;42.122;24.746;2023-03-23T05:17:27;37.90;;;28.73;;
2674;SDS011;1347;42.122;24.746;2023-03-23T05:19:56;39.57;;;29.57;;
2674;SDS011;1347;42.122;24.746;2023-03-23T05:22:23;40.67;;;26.60;;
2674;SDS011;1347;42.122;24.746;2023-03-23T05:24:53;37.07;;;26.93;;
2674;SDS011;1347;42.122;24.746;2023-03-23T05:27:20;37.23;;;26.90;;
2674;SDS011;1347;42.122;24.746;2023-03-23T05:29:47;35.33;;;27.00;;
2674;SDS011;1347;42.122;24.746;2023-03-23T05:32:14;36.43;;;26.33;;
2674;SDS011;1347;42.122;24.746;2023-03-23T05:34:42;32.63;;;27.10;;
2674;SDS011;1347;42.122;24.746;2023-03-23T05:37:10;32.40;;;25.77;;
2674;SDS011;1347;42.122;24.746;2023-03-23T05:39:38;31.03;;;26.73;;
2674;SDS011;1347;42.122;24.746;2023-03-23T05:42:06;34.73;;;26.40;;
2674;SDS011;1347;42.122;24.746;2023-03-23T05:44:33;31.33;;;26.77;;
2674;SDS011;1347;42.122;24.746;2023-03-23T05:47:00;35.27;;;26.37;;
2674;SDS011;1347;42.122;24.746;2023-03-23T05:49:28;31.20;;;23.90;;
2674;SDS011;1347;42.122;24.746;2023-03-23T05:51:55;32.77;;;25.03;;
2674;SDS011;1347;42.122;24.746;2023-03-23T05:54:23;32.80;;;26.20;;
2674;SDS011;1347;42.122;24.746;2023-03-23T05:56:50;28.90;;;24.83;;
2674;SDS011;1347;42.122;24.746;2023-03-23T05:59:17;32.43;;;27.00;;
2674;SDS011;1347;42.122;24.746;2023-03-23T06:01:44;35.90;;;26.73;;
2674;SDS011;1347;42.122;24.746;2023-03-23T06:04:11;48.30;;;32.67;;
2674;SDS011;1347;42.122;24.746;2023-03-23T06:06:38;59.17;;;35.33;;
2674;SDS011;1347;42.122;24.746;2023-03-23T06:09:06;58.23;;;35.40;;
2674;SDS011;1347;42.122;24.746;2023-03-23T06:11:35;32.67;;;25.27;;
2674;SDS011;1347;42.122;24.746;2023-03-23T06:14:02;40.07;;;28.83;;
2674;SDS011;1347;42.122;24.746;2023-03-23T06:16:29;33.43;;;26.77;;
2674;SDS011;1347;42.122;24.746;2023-03-23T06:18:56;37.00;;;27.37;;
2674;SDS011;1347;42.122;24.746;2023-03-23T06:21:25;35.80;;;26.43;;
2674;SDS011;1347;42.122;24.746;2023-03-23T06:23:53;31.60;;;24.97;;
2674;SDS011;1347;42.122;24.746;2023-03-23T06:26:21;31.67;;;26.10;;
2674;SDS011;1347;42.122;24.746;2023-03-23T06:28:54;30.50;;;26.07;;
2674;SDS011;1347;42.122;24.746;2023-03-23T06:31:21;31.77;;;26.60;;
2674;SDS011;1347;42.122;24.746;2023-03-23T06:33:48;33.60;;;26.73;;
2674;SDS011;1347;42.122;24.746;2023-03-23T06:36:15;30.00;;;25.23;;
2674;SDS011;1347;42.122;24.746;2023-03-23T06:38:42;29.83;;;25.53;;
2674;SDS011;1347;42.122;24.746;2023-03-23T06:41:10;34.53;;;25.07;;
2674;SDS011;1347;42.122;24.746;2023-03-23T06:43:37;31.60;;;24.97;;
2674;SDS011;1347;42.122;24.746;2023-03-23T06:46:06;31.10;;;25.60;;
2674;SDS011;1347;42.122;24.746;2023-03-23T06:48:33;35.50;;;25.10;;
2674;SDS011;1347;42.122;24.746;2023-03-23T06:51:00;32.53;;;25.30;;
2674;SDS011;1347;42.122;24.746;2023-03-23T06:53:27;31.53;;;26.80;;
2674;SDS011;1347;42.122;24.746;2023-03-23T06:55:54;33.23;;;26.27;;
2674;SDS011;1347;42.122;24.746;2023-03-23T06:58:21;30.70;;;24.70;;
2674;SDS011;1347;42.122;24.746;2023-03-23T07:00:48;33.00;;;26.70;;
2674;SDS011;1347;42.122;24.746;2023-03-23T07:03:23;38.20;;;27.00;;
2674;SDS011;1347;42.122;24.746;2023-03-23T07:05:50;32.37;;;26.17;;
2674;SDS011;1347;42.122;24.746;2023-03-23T07:08:17;32.60;;;25.60;;
2674;SDS011;1347;42.122;24.746;2023-03-23T07:10:44;39.73;;;28.57;;
2674;SDS011;1347;42.122;24.746;2023-03-23T07:13:11;29.23;;;23.83;;
2674;SDS011;1347;42.122;24.746;2023-03-23T07:15:38;37.70;;;24.30;;
2674;SDS011;1347;42.122;24.746;2023-03-23T07:18:05;31.17;;;24.37;;
2674;SDS011;1347;42.122;24.746;2023-03-23T07:20:34;37.90;;;29.07;;
2674;SDS011;1347;42.122;24.746;2023-03-23T07:23:01;29.33;;;25.77;;
2674;SDS011;1347;42.122;24.746;2023-03-23T07:25:30;30.10;;;26.90;;
2674;SDS011;1347;42.122;24.746;2023-03-23T07:27:57;25.93;;;23.30;;
2674;SDS011;1347;42.122;24.746;2023-03-23T07:30:25;34.37;;;26.90;;
2674;SDS011;1347;42.122;24.746;2023-03-23T07:32:54;29.83;;;25.17;;
2674;SDS011;1347;42.122;24.746;2023-03-23T07:35:21;34.43;;;28.73;;
2674;SDS011;1347;42.122;24.746;2023-03-23T07:37:49;33.60;;;27.50;;
2674;SDS011;1347;42.122;24.746;2023-03-23T07:40:17;32.03;;;27.63;;
2674;SDS011;1347;42.122;24.746;2023-03-23T07:42:45;31.33;;;27.83;;
2674;SDS011;1347;42.122;24.746;2023-03-23T07:45:15;36.17;;;32.37;;
2674;SDS011;1347;42.122;24.746;2023-03-23T07:47:42;34.37;;;28.10;;
2674;SDS011;1347;42.122;24.746;2023-03-23T07:50:09;29.67;;;26.67;;
2674;SDS011;1347;42.122;24.746;2023-03-23T07:52:37;27.50;;;24.80;;
2674;SDS011;1347;42.122;24.746;2023-03-23T07:55:06;26.93;;;23.80;;
2674;SDS011;1347;42.122;24.746;2023-03-23T07:57:36;36.50;;;28.73;;
2674;SDS011;1347;42.122;24.746;2023-03-23T08:00:04;27.60;;;24.80;;
2674;SDS011;1347;42.122;24.746;2023-03-23T08:02:37;30.07;;;27.17;;
2674;SDS011;1347;42.122;24.746;2023-03-23T08:05:04;31.63;;;26.83;;
2674;SDS011;1347;42.122;24.746;2023-03-23T08:07:33;27.90;;;25.17;;
2674;SDS011;1347;42.122;24.746;2023-03-23T08:10:00;34.30;;;31.00;;
2674;SDS011;1347;42.122;24.746;2023-03-23T08:12:28;33.23;;;29.30;;
2674;SDS011;1347;42.122;24.746;2023-03-23T08:14:55;36.43;;;30.80;;
2674;SDS011;1347;42.122;24.746;2023-03-23T08:17:22;31.97;;;28.90;;
2674;SDS011;1347;42.122;24.746;2023-03-23T08:19:49;36.17;;;28.93;;
2674;SDS011;1347;42.122;24.746;2023-03-23T08:22:17;34.37;;;28.43;;
2674;SDS011;1347;42.122;24.746;2023-03-23T08:24:44;29.83;;;26.83;;
2674;SDS011;1347;42.122;24.746;2023-03-23T08:27:11;31.97;;;28.90;;
2674;SDS011;1347;42.122;24.746;2023-03-23T08:29:40;32.53;;;29.23;;
2674;SDS011;1347;42.122;24.746;2023-03-23T08:32:07;31.83;;;28.73;;
2674;SDS011;1347;42.122;24.746;2023-03-23T08:34:34;33.20;;;29.00;;
2674;SDS011;1347;42.122;24.746;2023-03-23T08:37:01;29.67;;;26.73;;
2674;SDS011;1347;42.122;24.746;2023-03-23T08:39:28;28.13;;;25.47;;
2674;SDS011;1347;42.122;24.746;2023-03-23T08:41:55;28.87;;;26.00;;
2674;SDS011;1347;42.122;24.746;2023-03-23T08:44:22;27.73;;;23.80;;
2674;SDS011;1347;42.122;24.746;2023-03-23T08:46:51;24.43;;;22.33;;
2674;SDS011;1347;42.122;24.746;2023-03-23T08:49:21;24.20;;;22.20;;
2674;SDS011;1347;42.122;24.746;2023-03-23T08:51:48;28.33;;;22.33;;
2674;SDS011;1347;42.122;24.746;2023-03-23T08:54:15;22.23;;;20.20;;
2674;SDS011;1347;42.122;24.746;2023-03-23T08:56:42;20.87;;;19.13;;
2674;SDS011;1347;42.122;24.746;2023-03-23T08:59:09;23.33;;;21.40;;
2674;SDS011;1347;42.122;24.746;2023-03-23T09:01:36;23.73;;;21.60;;
2674;SDS011;1347;42.122;24.746;2023-03-23T09:04:05;31.10;;;24.43;;
2674;SDS011;1347;42.122;24.746;2023-03-23T09:06:34;28.10;;;25.27;;
2674;SDS011;1347;42.122;24.746;2023-03-23T09:09:01;26.63;;;23.20;;
2674;SDS011;1347;42.122;24.746;2023-03-23T09:11:31;25.73;;;23.27;;
2674;SDS011;1347;42.122;24.746;2023-03-23T09:13:59;22.27;;;20.10;;
2674;SDS011;1347;42.122;24.746;2023-03-23T09:16:27;20.07;;;18.40;;
2674;SDS011;1347;42.122;24.746;2023-03-23T09:18:54;19.67;;;17.77;;
2674;SDS011;1347;42.122;24.746;2023-03-23T09:21:23;15.63;;;14.33;;
2674;SDS011;1347;42.122;24.746;2023-03-23T09:23:51;15.87;;;14.33;;
2674;SDS011;1347;42.122;24.746;2023-03-23T09:26:17;21.20;;;19.30;;
2674;SDS011;1347;42.122;24.746;2023-03-23T09:28:45;20.50;;;18.90;;
2674;SDS011;1347;42.122;24.746;2023-03-23T09:31:11;19.90;;;18.20;;
2674;SDS011;1347;42.122;24.746;2023-03-23T09:33:39;20.07;;;18.30;;
2674;SDS011;1347;42.122;24.746;2023-03-23T09:36:06;20.30;;;18.57;;
2674;SDS011;1347;42.122;24.746;2023-03-23T09:38:39;19.77;;;17.90;;
2674;SDS011;1347;42.122;24.746;2023-03-23T09:41:11;19.63;;;17.70;;
2674;SDS011;1347;42.122;24.746;2023-03-23T09:43:57;19.83;;;17.90;;
2674;SDS011;1347;42.122;24.746;2023-03-23T09:46:35;19.47;;;17.47;;
2674;SDS011;1347;42.122;24.746;2023-03-23T09:49:11;18.33;;;16.63;;
2674;SDS011;1347;42.122;24.746;2023-03-23T09:51:43;16.40;;;14.90;;
2674;SDS011;1347;42.122;24.746;2023-03-23T09:54:17;17.63;;;14.47;;
2674;SDS011;1347;42.122;24.746;2023-03-23T09:56:48;17.87;;;15.90;;
2674;SDS011;1347;42.122;24.746;2023-03-23T09:59:18;17.03;;;15.27;;
2674;SDS011;1347;42.122;24.746;2023-03-23T10:01:50;16.17;;;14.50;;
2674;SDS011;1347;42.122;24.746;2023-03-23T10:04:27;18.27;;;16.37;;
2674;SDS011;1347;42.122;24.746;2023-03-23T10:06:58;17.77;;;15.97;;
2674;SDS011;1347;42.122;24.746;2023-03-23T10:09:32;17.10;;;15.30;;
2674;SDS011;1347;42.122;24.746;2023-03-23T10:12:02;19.00;;;15.07;;
2674;SDS011;1347;42.122;24.746;2023-03-23T10:14:37;18.13;;;16.33;;
2674;SDS011;1347;42.122;24.746;2023-03-23T10:17:13;15.90;;;14.50;;
2674;SDS011;1347;42.122;24.746;2023-03-23T10:19:46;15.27;;;13.67;;
2674;SDS011;1347;42.122;24.746;2023-03-23T10:22:19;15.40;;;13.97;;
2674;SDS011;1347;42.122;24.746;2023-03-23T10:24:54;17.07;;;15.63;;
2674;SDS011;1347;42.122;24.746;2023-03-23T10:27:29;17.20;;;15.50;;
2674;SDS011;1347;42.122;24.746;2023-03-23T10:30:01;15.83;;;14.33;;
2674;SDS011;1347;42.122;24.746;2023-03-23T10:32:42;12.33;;;11.33;;
2674;SDS011;1347;42.122;24.746;2023-03-23T10:35:15;12.30;;;11.30;;
2674;SDS011;1347;42.122;24.746;2023-03-23T10:37:47;14.30;;;13.10;;
2674;SDS011;1347;42.122;24.746;2023-03-23T10:40:20;15.53;;;14.03;;
2674;SDS011;1347;42.122;24.746;2023-03-23T10:42:51;9.87;;;9.10;;
2674;SDS011;1347;42.122;24.746;2023-03-23T10:45:20;8.70;;;7.97;;
2674;SDS011;1347;42.122;24.746;2023-03-23T10:47:51;10.03;;;9.20;;
2674;SDS011;1347;42.122;24.746;2023-03-23T10:50:23;9.60;;;8.90;;
2674;SDS011;1347;42.122;24.746;2023-03-23T10:52:52;9.10;;;8.40;;
2674;SDS011;1347;42.122;24.746;2023-03-23T10:55:24;16.00;;;10.77;;
2674;SDS011;1347;42.122;24.746;2023-03-23T10:58:04;9.70;;;8.80;;
2674;SDS011;1347;42.122;24.746;2023-03-23T11:00:32;13.93;;;10.00;;
2674;SDS011;1347;42.122;24.746;2023-03-23T11:03:00;9.43;;;8.53;;
2674;SDS011;1347;42.122;24.746;2023-03-23T11:05:32;17.00;;;12.37;;
2674;SDS011;1347;42.122;24.746;2023-03-23T11:08:02;14.43;;;12.27;;
2674;SDS011;1347;42.122;24.746;2023-03-23T11:10:39;12.57;;;11.43;;
2674;SDS011;1347;42.122;24.746;2023-03-23T11:13:10;13.97;;;12.77;;
2674;SDS011;1347;42.122;24.746;2023-03-23T11:15:40;15.67;;;13.67;;
2674;SDS011;1347;42.122;24.746;2023-03-23T11:18:10;13.70;;;12.27;;
2674;SDS011;1347;42.122;24.746;2023-03-23T11:20:39;12.33;;;10.60;;
2674;SDS011;1347;42.122;24.746;2023-03-23T11:23:09;10.47;;;9.57;;
2674;SDS011;1347;42.122;24.746;2023-03-23T11:25:52;11.73;;;10.53;;
2674;SDS011;1347;42.122;24.746;2023-03-23T11:28:25;11.63;;;10.43;;
2674;SDS011;1347;42.122;24.746;2023-03-23T11:30:55;11.00;;;7.93;;
2674;SDS011;1347;42.122;24.746;2023-03-23T11:33:24;10.47;;;8.60;;
2674;SDS011;1347;42.122;24.746;2023-03-23T11:35:55;8.83;;;7.73;;
2674;SDS011;1347;42.122;24.746;2023-03-23T11:38:23;8.17;;;7.33;;
2674;SDS011;1347;42.122;24.746;2023-03-23T11:40:54;7.70;;;6.80;;
2674;SDS011;1347;42.122;24.746;2023-03-23T11:43:22;8.90;;;6.40;;
2674;SDS011;1347;42.122;24.746;2023-03-23T11:45:52;8.10;;;7.30;;
2674;SDS011;1347;42.122;24.746;2023-03-23T11:48:27;8.30;;;7.50;;
2674;SDS011;1347;42.122;24.746;2023-03-23T11:51:01;7.93;;;7.10;;
2674;SDS011;1347;42.122;24.746;2023-03-23T11:53:33;11.80;;;8.30;;
2674;SDS011;1347;42.122;24.746;2023-03-23T11:56:13;8.33;;;7.53;;
2674;SDS011;1347;42.122;24.746;2023-03-23T11:58:45;12.17;;;10.50;;
2674;SDS011;1347;42.122;24.746;2023-03-23T12:01:15;11.70;;;10.20;;
2674;SDS011;1347;42.122;24.746;2023-03-23T12:04:09;16.30;;;11.50;;
2674;SDS011;1347;42.122;24.746;2023-03-23T12:06:51;17.50;;;11.73;;
2674;SDS011;1347;42.122;24.746;2023-03-23T12:09:28;12.43;;;11.23;;
2674;SDS011;1347;42.122;24.746;2023-03-23T12:12:10;14.57;;;12.63;;
2674;SDS011;1347;42.122;24.746;2023-03-23T12:14:46;11.30;;;10.10;;
2674;SDS011;1347;42.122;24.746;2023-03-23T12:17:23;12.30;;;11.10;;
2674;SDS011;1347;42.122;24.746;2023-03-23T12:20:01;14.77;;;12.10;;
2674;SDS011;1347;42.122;24.746;2023-03-23T12:22:42;12.57;;;11.20;;
2674;SDS011;1347;42.122;24.746;2023-03-23T12:28:21;11.30;;;10.20;;
2674;SDS011;1347;42.122;24.746;2023-03-23T12:30:59;12.40;;;11.07;;
2674;SDS011;1347;42.122;24.746;2023-03-23T12:33:35;11.63;;;10.00;;
2674;SDS011;1347;42.122;24.746;2023-03-23T12:36:15;11.73;;;9.97;;
2674;SDS011;1347;42.122;24.746;2023-03-23T12:39:02;12.47;;;11.13;;
2674;SDS011;1347;42.122;24.746;2023-03-23T12:41:48;13.00;;;9.63;;
2674;SDS011;1347;42.122;24.746;2023-03-23T12:44:24;11.87;;;10.07;;
2674;SDS011;1347;42.122;24.746;2023-03-23T12:46:58;17.20;;;10.60;;
2674;SDS011;1347;42.122;24.746;2023-03-23T12:49:34;9.97;;;8.97;;
2674;SDS011;1347;42.122;24.746;2023-03-23T12:52:11;9.90;;;8.90;;
2674;SDS011;1347;42.122;24.746;2023-03-23T12:54:44;9.30;;;8.50;;
2674;SDS011;1347;42.122;24.746;2023-03-23T12:57:19;10.67;;;8.40;;
2674;SDS011;1347;42.122;24.746;2023-03-23T12:59:54;10.03;;;9.13;;
2674;SDS011;1347;42.122;24.746;2023-03-23T13:02:32;9.47;;;8.57;;
2674;SDS011;1347;42.122;24.746;2023-03-23T13:05:02;8.80;;;7.90;;
2674;SDS011;1347;42.122;24.746;2023-03-23T13:07:32;9.80;;;8.90;;
2674;SDS011;1347;42.122;24.746;2023-03-23T13:10:09;10.47;;;9.47;;
2674;SDS011;1347;42.122;24.746;2023-03-23T13:12:44;9.53;;;8.60;;
2674;SDS011;1347;42.122;24.746;2023-03-23T13:15:18;9.87;;;8.87;;
2674;SDS011;1347;42.122;24.746;2023-03-23T13:17:54;8.50;;;7.70;;
2674;SDS011;1347;42.122;24.746;2023-03-23T13:23:17;8.50;;;7.80;;
2674;SDS011;1347;42.122;24.746;2023-03-23T13:25:49;7.00;;;6.40;;
2674;SDS011;1347;42.122;24.746;2023-03-23T13:28:18;9.87;;;8.50;;
2674;SDS011;1347;42.122;24.746;2023-03-23T13:31:02;7.67;;;6.90;;
2674;SDS011;1347;42.122;24.746;2023-03-23T13:33:38;8.70;;;7.80;;
2674;SDS011;1347;42.122;24.746;2023-03-23T13:36:08;9.10;;;7.70;;
2674;SDS011;1347;42.122;24.746;2023-03-23T13:38:36;8.80;;;7.90;;
2674;SDS011;1347;42.122;24.746;2023-03-23T13:41:06;8.93;;;8.07;;
2674;SDS011;1347;42.122;24.746;2023-03-23T13:43:37;8.90;;;8.00;;
2674;SDS011;1347;42.122;24.746;2023-03-23T13:46:08;8.57;;;7.53;;
2674;SDS011;1347;42.122;24.746;2023-03-23T13:48:42;9.27;;;7.30;;
2674;SDS011;1347;42.122;24.746;2023-03-23T13:51:24;6.53;;;5.90;;
2674;SDS011;1347;42.122;24.746;2023-03-23T13:54:04;6.97;;;6.27;;
2674;SDS011;1347;42.122;24.746;2023-03-23T13:56:40;6.43;;;5.90;;
2674;SDS011;1347;42.122;24.746;2023-03-23T13:59:12;6.80;;;5.77;;
2674;SDS011;1347;42.122;24.746;2023-03-23T14:01:42;6.03;;;5.43;;
2674;SDS011;1347;42.122;24.746;2023-03-23T14:04:12;6.73;;;6.10;;
2674;SDS011;1347;42.122;24.746;2023-03-23T14:06:43;7.03;;;6.40;;
2674;SDS011;1347;42.122;24.746;2023-03-23T14:09:13;8.83;;;7.33;;
2674;SDS011;1347;42.122;24.746;2023-03-23T14:11:48;7.13;;;6.43;;
2674;SDS011;1347;42.122;24.746;2023-03-23T14:14:20;8.43;;;6.37;;
2674;SDS011;1347;42.122;24.746;2023-03-23T14:16:52;6.83;;;6.23;;
2674;SDS011;1347;42.122;24.746;2023-03-23T14:19:21;7.73;;;6.73;;
2674;SDS011;1347;42.122;24.746;2023-03-23T14:21:52;7.10;;;6.50;;
2674;SDS011;1347;42.122;24.746;2023-03-23T14:24:20;6.40;;;5.13;;
2674;SDS011;1347;42.122;24.746;2023-03-23T14:26:49;6.40;;;5.90;;
2674;SDS011;1347;42.122;24.746;2023-03-23T14:29:19;5.90;;;4.83;;
2674;SDS011;1347;42.122;24.746;2023-03-23T14:31:49;6.77;;;5.87;;
2674;SDS011;1347;42.122;24.746;2023-03-23T14:34:21;5.87;;;4.87;;
2674;SDS011;1347;42.122;24.746;2023-03-23T14:36:52;9.63;;;6.37;;
2674;SDS011;1347;42.122;24.746;2023-03-23T14:39:22;7.07;;;6.17;;
2674;SDS011;1347;42.122;24.746;2023-03-23T14:41:52;6.47;;;5.87;;
2674;SDS011;1347;42.122;24.746;2023-03-23T14:44:22;7.57;;;6.70;;
2674;SDS011;1347;42.122;24.746;2023-03-23T14:46:51;6.83;;;5.73;;
2674;SDS011;1347;42.122;24.746;2023-03-23T14:49:25;9.73;;;6.90;;
2674;SDS011;1347;42.122;24.746;2023-03-23T14:51:56;7.33;;;6.63;;
2674;SDS011;1347;42.122;24.746;2023-03-23T14:54:24;8.27;;;7.17;;
2674;SDS011;1347;42.122;24.746;2023-03-23T14:56:52;7.30;;;6.60;;
2674;SDS011;1347;42.122;24.746;2023-03-23T14:59:20;7.70;;;6.90;;
2674;SDS011;1347;42.122;24.746;2023-03-23T15:01:47;6.03;;;5.30;;
2674;SDS011;1347;42.122;24.746;2023-03-23T15:04:19;6.60;;;6.00;;
2674;SDS011;1347;42.122;24.746;2023-03-23T15:06:48;6.13;;;5.60;;
2674;SDS011;1347;42.122;24.746;2023-03-23T15:09:17;9.83;;;6.13;;